Time;durP1;ratioP1;P1;durP2;ratioP2;P2;SDS_P1;SDS_P2;PMS_P1;PMS_P2;Temp;Humidity;BMP_temperature;BMP_pressure;BME280_temperature;BME280_humidity;BME280_pressure;Samples;Min_cycle;Max_cycle;Signal;HPM_P1;HPM_P2
2022/08/17 00:01:04;;;;;;;;;;;18.30;99.90;;;;;;5015847;28;19905;-76
2022/08/17 00:03:34;;;;;;;;;;;18.30;99.90;;;;;;5015167;28;19952;-73
2022/08/17 00:06:07;;;;;;;;;;;18.30;99.90;;;;;;5015265;28;20368;-72
2022/08/17 00:08:37;;;;;;;;;;;18.20;99.90;;;;;;5015199;28;19952;-73
2022/08/17 00:11:05;;;;;;;;;;;18.20;99.90;;;;;;5015656;28;19913;-75
2022/08/17 00:13:33;;;;;;;;;;;18.20;99.90;;;;;;5014971;28;20415;-76
2022/08/17 00:16:04;;;;;;;;;;;18.10;99.90;;;;;;5015891;28;19905;-76
2022/08/17 00:18:30;;;;;;;;;;;18.10;99.90;;;;;;5019495;28;19959;-73
2022/08/17 00:20:56;;;;;;;;;;;18.10;99.90;;;;;;5015436;28;19996;-76
2022/08/17 00:23:22;;;;;;;;;;;18.20;99.90;;;;;;5014660;28;19996;-75
2022/08/17 00:25:48;;;;;;;;;;;18.20;99.90;;;;;;5014980;28;19915;-73
2022/08/17 00:28:15;;;;;;;;;;;18.20;99.90;;;;;;5014232;28;19913;-75
2022/08/17 00:30:44;;;;;;;;;;;18.20;99.90;;;;;;5014261;28;19909;-73
2022/08/17 00:33:11;;;;;;;;;;;18.30;99.90;;;;;;5014681;28;19916;-76
2022/08/17 00:35:37;;;;;;;;;;;18.30;99.90;;;;;;5013797;28;20034;-73
2022/08/17 00:38:05;;;;;;;;;;;18.30;99.90;;;;;;5015295;28;19948;-76
2022/08/17 00:40:30;;;;;;;;;;;18.30;99.90;;;;;;5014528;28;19948;-76
2022/08/17 00:42:56;;;;;;;;;;;18.30;99.90;;;;;;5012142;28;19996;-76
2022/08/17 00:45:22;;;;;;;;;;;18.30;99.90;;;;;;5014814;28;19905;-73
2022/08/17 00:47:48;;;;;;;;;;;18.30;99.90;;;;;;5015123;28;19906;-73
2022/08/17 00:50:15;;;;;;;;;;;18.20;99.90;;;;;;5013891;28;19912;-76
2022/08/17 00:52:44;;;;;;;;;;;18.20;99.90;;;;;;5013975;28;19924;-76
2022/08/17 00:55:09;;;;;;;;;;;18.20;99.90;;;;;;5014718;28;19917;-77
2022/08/17 00:57:38;;;;;;;;;;;18.20;99.90;;;;;;5013491;28;20365;-73
2022/08/17 01:00:07;;;;;;;;;;;18.10;99.90;;;;;;5014295;28;20256;-73
2022/08/17 01:02:38;;;;;;;;;;;18.10;99.90;;;;;;5014331;28;20012;-76
2022/08/17 01:05:04;;;;;;;;;;;18.10;99.90;;;;;;5014657;28;20342;-73
2022/08/17 01:07:29;;;;;;;;;;;18.10;99.90;;;;;;5014499;28;19910;-76
2022/08/17 01:09:55;;;;;;;;;;;18.00;99.90;;;;;;5013733;28;19999;-72
2022/08/17 01:12:21;;;;;;;;;;;17.90;99.90;;;;;;5014085;28;19909;-72
2022/08/17 01:14:47;;;;;;;;;;;17.90;99.90;;;;;;5014282;28;19910;-72
2022/08/17 01:17:12;;;;;;;;;;;17.90;99.90;;;;;;5015099;28;19951;-72
2022/08/17 01:19:39;;;;;;;;;;;17.80;99.90;;;;;;5013993;28;19905;-73
2022/08/17 01:22:07;;;;;;;;;;;17.80;99.90;;;;;;5013298;28;20299;-72
2022/08/17 01:24:33;;;;;;;;;;;17.70;99.90;;;;;;5014289;28;19906;-76
2022/08/17 01:26:59;;;;;;;;;;;17.70;99.90;;;;;;5014076;28;19905;-73
2022/08/17 01:29:25;;;;;;;;;;;17.70;99.90;;;;;;5013251;28;20012;-73
2022/08/17 01:31:52;;;;;;;;;;;17.60;99.90;;;;;;5014053;28;19920;-73
2022/08/17 01:34:18;;;;;;;;;;;17.60;99.90;;;;;;5013804;28;19920;-73
2022/08/17 01:36:44;;;;;;;;;;;17.60;99.90;;;;;;5012565;28;20020;-72
2022/08/17 01:39:17;;;;;;;;;;;17.60;99.90;;;;;;5013389;28;19916;-72
2022/08/17 01:41:44;;;;;;;;;;;17.50;99.90;;;;;;5011615;28;19945;-75
2022/08/17 01:44:10;;;;;;;;;;;17.50;99.90;;;;;;5018141;28;20332;-76
2022/08/17 01:46:35;;;;;;;;;;;17.50;99.90;;;;;;5013381;28;19941;-76
2022/08/17 01:49:04;;;;;;;;;;;17.40;99.90;;;;;;5013226;28;20327;-73
2022/08/17 01:51:31;;;;;;;;;;;17.40;99.90;;;;;;5013523;28;19964;-76
2022/08/17 01:53:59;;;;;;;;;;;17.40;99.90;;;;;;5009361;28;19922;-75
2022/08/17 01:56:26;;;;;;;;;;;17.40;99.90;;;;;;5013325;28;20332;-76
2022/08/17 01:58:52;;;;;;;;;;;17.40;99.90;;;;;;5012104;28;19996;-76
2022/08/17 02:01:19;;;;;;;;;;;17.50;99.90;;;;;;5013055;28;20386;-76
2022/08/17 02:03:45;;;;;;;;;;;17.50;99.90;;;;;;5013540;28;20011;-73
2022/08/17 02:06:11;;;;;;;;;;;17.40;99.90;;;;;;5013261;28;19905;-76
2022/08/17 02:08:36;;;;;;;;;;;17.40;99.90;;;;;;5012966;28;19905;-76
2022/08/17 02:11:03;;;;;;;;;;;17.40;99.90;;;;;;5013169;28;19991;-76
2022/08/17 02:13:29;;;;;;;;;;;17.30;99.90;;;;;;5013160;28;20416;-76
2022/08/17 02:15:55;;;;;;;;;;;17.30;99.90;;;;;;5012951;28;20000;-73
2022/08/17 02:18:21;;;;;;;;;;;17.30;99.90;;;;;;5017529;28;19927;-73
2022/08/17 02:20:46;;;;;;;;;;;17.30;99.90;;;;;;5012821;28;20731;-76
2022/08/17 02:23:13;;;;;;;;;;;17.30;99.90;;;;;;5013248;28;19956;-76
2022/08/17 02:25:42;;;;;;;;;;;17.20;99.90;;;;;;5012596;28;19912;-75
2022/08/17 02:28:08;;;;;;;;;;;17.10;99.90;;;;;;5014714;28;19906;-73
2022/08/17 02:30:33;;;;;;;;;;;17.10;99.90;;;;;;5011705;28;20424;-76
2022/08/17 02:32:59;;;;;;;;;;;17.00;99.90;;;;;;5012342;28;19917;-76
2022/08/17 02:35:25;;;;;;;;;;;17.00;99.90;;;;;;5011718;28;19944;-72
2022/08/17 02:37:50;;;;;;;;;;;17.10;99.90;;;;;;5012804;28;19905;-76
2022/08/17 02:40:16;;;;;;;;;;;17.10;99.90;;;;;;5012672;28;20003;-75
2022/08/17 02:42:43;;;;;;;;;;;17.00;99.90;;;;;;5009729;28;19905;-72
2022/08/17 02:45:11;;;;;;;;;;;17.10;99.90;;;;;;5012682;28;19952;-76
2022/08/17 02:47:37;;;;;;;;;;;17.10;99.90;;;;;;5012738;28;19927;-76
2022/08/17 02:50:04;;;;;;;;;;;17.00;99.90;;;;;;5011145;28;20396;-72
2022/08/17 02:52:34;;;;;;;;;;;17.00;99.90;;;;;;5011250;28;19924;-75
2022/08/17 02:54:59;;;;;;;;;;;17.00;99.90;;;;;;5012174;28;19910;-73
2022/08/17 02:57:25;;;;;;;;;;;17.00;99.90;;;;;;5011568;28;19963;-76
2022/08/17 02:59:50;;;;;;;;;;;17.00;99.90;;;;;;5012155;28;20420;-76
2022/08/17 03:02:16;;;;;;;;;;;17.00;99.90;;;;;;5012526;28;19941;-76
2022/08/17 03:04:41;;;;;;;;;;;16.90;99.90;;;;;;5012809;28;19944;-76
2022/08/17 03:07:07;;;;;;;;;;;16.90;99.90;;;;;;5011893;28;20466;-76
2022/08/17 03:09:32;;;;;;;;;;;16.90;99.90;;;;;;5012413;28;20789;-76
2022/08/17 03:12:05;;;;;;;;;;;16.80;99.90;;;;;;5012388;28;19909;-76
2022/08/17 03:14:31;;;;;;;;;;;16.80;99.90;;;;;;5008556;28;20520;-75
2022/08/17 03:16:56;;;;;;;;;;;16.80;99.90;;;;;;5014083;28;19905;-76
2022/08/17 03:19:22;;;;;;;;;;;16.70;99.90;;;;;;5011808;28;19968;-76
2022/08/17 03:21:47;;;;;;;;;;;16.70;99.90;;;;;;5012387;28;19905;-72
2022/08/17 03:24:14;;;;;;;;;;;16.70;99.90;;;;;;5012142;28;20003;-76
2022/08/17 03:26:39;;;;;;;;;;;16.60;99.90;;;;;;5012147;28;20008;-75
2022/08/17 03:29:05;;;;;;;;;;;16.60;99.90;;;;;;5010035;28;20035;-76
2022/08/17 03:31:31;;;;;;;;;;;16.50;99.90;;;;;;5012007;28;19916;-73
2022/08/17 03:33:56;;;;;;;;;;;16.50;99.90;;;;;;5012513;28;19909;-76
2022/08/17 03:36:22;;;;;;;;;;;16.50;99.90;;;;;;5010245;28;20004;-72
2022/08/17 03:38:47;;;;;;;;;;;16.50;99.90;;;;;;5012286;28;19909;-76
2022/08/17 03:41:13;;;;;;;;;;;16.50;99.90;;;;;;5008685;28;19916;-77
2022/08/17 03:43:38;;;;;;;;;;;16.50;99.90;;;;;;5012321;28;19913;-76
2022/08/17 03:57:08;;;;;;;;;;;16.70;99.90;;;;;;5010448;28;19968;-76
2022/08/17 03:59:34;;;;;;;;;;;16.70;99.90;;;;;;5010030;28;20019;-72
2022/08/17 04:02:02;;;;;;;;;;;16.70;99.90;;;;;;5013128;28;19928;-76
2022/08/17 04:04:28;;;;;;;;;;;16.70;99.90;;;;;;5015384;28;19910;-72
2022/08/17 04:06:54;;;;;;;;;;;16.60;99.90;;;;;;5015272;28;19916;-72
2022/08/17 04:09:19;;;;;;;;;;;16.70;99.90;;;;;;5015384;28;19906;-72
2022/08/17 04:11:45;;;;;;;;;;;16.70;99.90;;;;;;5014432;28;19909;-73
2022/08/17 04:14:10;;;;;;;;;;;16.70;99.90;;;;;;5015160;28;19909;-72
2022/08/17 04:16:36;;;;;;;;;;;16.70;99.90;;;;;;5019003;28;19909;-76
2022/08/17 04:19:03;;;;;;;;;;;16.70;99.90;;;;;;5010945;28;19905;-72
2022/08/17 04:21:28;;;;;;;;;;;16.70;99.90;;;;;;5013410;28;20336;-72
2022/08/17 04:23:54;;;;;;;;;;;16.80;99.90;;;;;;5015107;28;19967;-76
2022/08/17 04:26:21;;;;;;;;;;;16.80;99.90;;;;;;5015254;28;19906;-76
2022/08/17 04:28:47;;;;;;;;;;;16.90;99.90;;;;;;5012445;28;19963;-76
2022/08/17 04:31:12;;;;;;;;;;;16.80;99.90;;;;;;5013255;28;19909;-77
2022/08/17 04:33:38;;;;;;;;;;;16.80;99.90;;;;;;5014503;28;19905;-76
2022/08/17 04:36:05;;;;;;;;;;;16.80;99.90;;;;;;5014026;28;20008;-76
2022/08/17 04:38:32;;;;;;;;;;;16.80;99.90;;;;;;5015144;28;19905;-76
2022/08/17 04:43:43;;;;;;;;;;;16.80;99.90;;;;;;5016171;28;20058;-76
2022/08/17 04:46:10;;;;;;;;;;;16.80;99.90;;;;;;5014708;28;19927;-76
2022/08/17 04:48:38;;;;;;;;;;;16.70;99.90;;;;;;5015091;28;20269;-76
2022/08/17 04:51:05;;;;;;;;;;;16.70;99.90;;;;;;5015124;28;19955;-72
2022/08/17 04:53:31;;;;;;;;;;;16.70;99.90;;;;;;5012603;28;20340;-76
2022/08/17 04:55:57;;;;;;;;;;;16.80;99.90;;;;;;5014162;28;19909;-75
2022/08/17 04:58:23;;;;;;;;;;;16.70;99.90;;;;;;5011721;28;19909;-76
2022/08/17 05:00:48;;;;;;;;;;;16.70;99.90;;;;;;5013390;28;19905;-76
2022/08/17 05:03:14;;;;;;;;;;;16.70;99.90;;;;;;5014362;28;20356;-72
2022/08/17 05:05:48;;;;;;;;;;;16.70;99.90;;;;;;5014216;28;20371;-72
2022/08/17 05:08:14;;;;;;;;;;;16.70;99.90;;;;;;5014292;28;19905;-72
2022/08/17 05:10:39;;;;;;;;;;;16.70;99.90;;;;;;5014248;28;20000;-76
2022/08/17 05:13:06;;;;;;;;;;;16.70;99.90;;;;;;5013349;28;20056;-76
2022/08/17 05:15:32;;;;;;;;;;;16.80;99.90;;;;;;5013541;28;19940;-76
2022/08/17 05:17:58;;;;;;;;;;;16.70;99.90;;;;;;5016179;28;19915;-76
2022/08/17 05:20:24;;;;;;;;;;;16.80;99.90;;;;;;5014021;28;20911;-72
2022/08/17 05:22:54;;;;;;;;;;;17.10;99.90;;;;;;5013374;28;19905;-75
2022/08/17 05:25:21;;;;;;;;;;;17.40;99.90;;;;;;5014162;28;19952;-72
2022/08/17 05:27:47;;;;;;;;;;;17.60;99.90;;;;;;5013462;28;19905;-72
2022/08/17 05:30:13;;;;;;;;;;;17.70;99.90;;;;;;5013590;28;19913;-72
2022/08/17 05:32:55;;;;;;;;;;;17.80;99.90;;;;;;5013549;28;20012;-72
2022/08/17 05:35:22;;;;;;;;;;;18.00;99.90;;;;;;5013458;28;19996;-75
2022/08/17 05:37:47;;;;;;;;;;;18.00;99.90;;;;;;5013304;28;19944;-76
2022/08/17 05:40:13;;;;;;;;;;;18.00;99.90;;;;;;5012052;28;20430;-75
2022/08/17 05:42:39;;;;;;;;;;;18.10;99.90;;;;;;5012617;28;19928;-75
2022/08/17 05:45:05;;;;;;;;;;;18.10;99.90;;;;;;5017646;28;19909;-72
2022/08/17 05:47:30;;;;;;;;;;;18.10;99.90;;;;;;5008909;28;19917;-76
2022/08/17 05:49:56;;;;;;;;;;;18.20;99.90;;;;;;5012704;28;19933;-75
2022/08/17 05:52:32;;;;;;;;;;;18.20;99.90;;;;;;5010959;28;20315;-75
2022/08/17 05:55:00;;;;;;;;;;;18.30;99.90;;;;;;5010388;28;19910;-72
2022/08/17 05:57:29;;;;;;;;;;;18.40;99.90;;;;;;5011379;28;20284;-75
2022/08/17 06:00:01;;;;;;;;;;;18.40;99.90;;;;;;5010824;28;19913;-72
2022/08/17 06:02:32;;;;;;;;;;;18.40;99.90;;;;;;5012360;28;20403;-76
2022/08/17 06:05:13;;;;;;;;;;;18.40;99.90;;;;;;5012383;28;19921;-72
2022/08/17 06:07:44;;;;;;;;;;;18.40;99.90;;;;;;5011420;28;19909;-75
2022/08/17 06:10:21;;;;;;;;;;;18.40;99.90;;;;;;5012051;28;19912;-72
2022/08/17 06:12:53;;;;;;;;;;;18.30;99.90;;;;;;5011573;28;20011;-72
2022/08/17 06:15:27;;;;;;;;;;;18.30;99.90;;;;;;5010669;28;19906;-75
2022/08/17 06:17:55;;;;;;;;;;;18.40;99.90;;;;;;5013904;28;20020;-72
2022/08/17 06:20:21;;;;;;;;;;;18.50;99.90;;;;;;5010580;28;20323;-76
2022/08/17 06:22:48;;;;;;;;;;;18.60;99.90;;;;;;5004659;28;19909;-72
2022/08/17 06:25:21;;;;;;;;;;;18.60;99.90;;;;;;5005916;28;19905;-71
2022/08/17 06:27:55;;;;;;;;;;;18.70;99.90;;;;;;5011241;28;19964;-72
2022/08/17 06:30:24;;;;;;;;;;;18.80;99.90;;;;;;5010784;28;20395;-72
2022/08/17 06:32:50;;;;;;;;;;;18.90;99.90;;;;;;5009212;28;20012;-76
2022/08/17 06:35:20;;;;;;;;;;;19.00;99.90;;;;;;5011901;28;19916;-72
2022/08/17 06:37:54;;;;;;;;;;;19.30;99.90;;;;;;5005668;28;19912;-76
2022/08/17 06:40:28;;;;;;;;;;;19.40;99.90;;;;;;5003217;28;19921;-77
2022/08/17 06:43:00;;;;;;;;;;;19.30;99.90;;;;;;5010332;28;19916;-72
2022/08/17 06:45:30;;;;;;;;;;;19.30;99.90;;;;;;5012823;28;20018;-76
2022/08/17 06:48:03;;;;;;;;;;;19.20;99.90;;;;;;5013151;28;19909;-72
2022/08/17 06:50:34;;;;;;;;;;;19.40;99.90;;;;;;5012623;28;19909;-72
2022/08/17 06:53:16;;;;;;;;;;;19.70;99.90;;;;;;5013627;28;19980;-76
2022/08/17 06:55:45;;;;;;;;;;;19.40;99.90;;;;;;5010307;28;19914;-75
2022/08/17 06:58:12;;;;;;;;;;;19.30;99.90;;;;;;5010548;28;19930;-76
2022/08/17 07:00:43;;;;;;;;;;;19.20;99.90;;;;;;5013189;28;20240;-75
2022/08/17 07:03:09;;;;;;;;;;;19.20;99.90;;;;;;5009731;28;19919;-72
2022/08/17 07:05:39;;;;;;;;;;;19.20;99.90;;;;;;5014047;28;20021;-72
2022/08/17 07:08:21;;;;;;;;;;;19.50;99.90;;;;;;5008362;28;20035;-76
2022/08/17 07:10:52;;;;;;;;;;;19.80;99.90;;;;;;5011168;28;20000;-76
2022/08/17 07:13:24;;;;;;;;;;;20.10;99.90;;;;;;5010196;28;19921;-77
2022/08/17 07:15:52;;;;;;;;;;;20.10;99.90;;;;;;5008484;28;19920;-72
2022/08/17 07:18:17;;;;;;;;;;;20.00;99.90;;;;;;5012848;28;19917;-73
2022/08/17 07:20:45;;;;;;;;;;;20.00;99.90;;;;;;5005864;28;19913;-77
2022/08/17 07:23:14;;;;;;;;;;;20.00;99.90;;;;;;5008065;28;19917;-73
2022/08/17 07:25:39;;;;;;;;;;;20.00;99.90;;;;;;5009271;28;20056;-72
2022/08/17 07:28:06;;;;;;;;;;;20.10;99.90;;;;;;5014329;28;20439;-73
2022/08/17 07:30:34;;;;;;;;;;;19.80;99.90;;;;;;5011327;28;20320;-73
2022/08/17 07:33:01;;;;;;;;;;;19.70;99.90;;;;;;5008015;28;20438;-77
2022/08/17 07:35:40;;;;;;;;;;;19.60;99.90;;;;;;5013054;28;20364;-76
2022/08/17 07:38:08;;;;;;;;;;;19.60;99.90;;;;;;5008795;28;19921;-73
2022/08/17 07:40:35;;;;;;;;;;;19.60;99.90;;;;;;5010415;28;19910;-77
2022/08/17 07:43:19;;;;;;;;;;;19.50;99.90;;;;;;5009954;28;19916;-72
2022/08/17 07:48:49;;;;;;;;;;;19.40;99.90;;;;;;5006465;28;19963;-76
2022/08/17 07:51:21;;;;;;;;;;;19.60;99.90;;;;;;5008060;28;19917;-72
2022/08/17 07:53:47;;;;;;;;;;;19.50;99.90;;;;;;5016545;28;19917;-73
2022/08/17 07:56:31;;;;;;;;;;;19.70;99.90;;;;;;5015982;28;20390;-73
2022/08/17 07:59:07;;;;;;;;;;;20.00;99.90;;;;;;5014306;28;20331;-73
2022/08/17 08:01:36;;;;;;;;;;;20.40;99.90;;;;;;5013946;28;19916;-79
2022/08/17 08:04:15;;;;;;;;;;;21.80;99.90;;;;;;5015518;28;19932;-77
2022/08/17 08:06:46;;;;;;;;;;;23.90;99.90;;;;;;5013998;28;19916;-73
2022/08/17 08:09:27;;;;;;;;;;;25.60;99.90;;;;;;5013793;28;20040;-73
2022/08/17 08:11:52;;;;;;;;;;;25.90;99.90;;;;;;5018159;28;19924;-78
2022/08/17 08:14:37;;;;;;;;;;;26.20;99.90;;;;;;5013652;28;20309;-77
2022/08/17 08:17:04;;;;;;;;;;;26.40;99.90;;;;;;5019612;28;20368;-77
2022/08/17 08:19:30;;;;;;;;;;;25.50;99.90;;;;;;5020531;28;19917;-78
2022/08/17 08:21:58;;;;;;;;;;;26.00;99.90;;;;;;5013552;28;19995;-74
2022/08/17 08:24:40;;;;;;;;;;;25.40;99.90;;;;;;5013768;28;20312;-77
2022/08/17 08:27:25;;;;;;;;;;;25.30;99.90;;;;;;5012595;28;19916;-77
2022/08/17 08:29:53;;;;;;;;;;;24.80;99.90;;;;;;5008430;28;20036;-74
2022/08/17 08:32:37;;;;;;;;;;;25.70;99.90;;;;;;5013298;28;19917;-73
2022/08/17 08:35:04;;;;;;;;;;;26.40;99.90;;;;;;5012912;28;19947;-74
2022/08/17 08:37:38;;;;;;;;;;;27.90;99.90;;;;;;5016259;28;19909;-78
2022/08/17 08:40:23;;;;;;;;;;;28.20;97.90;;;;;;5013213;28;19918;-78
2022/08/17 08:43:02;;;;;;;;;;;25.80;99.90;;;;;;5013627;28;19960;-78
2022/08/17 08:45:37;;;;;;;;;;;27.20;98.90;;;;;;5010338;28;19955;-74
2022/08/17 08:48:21;;;;;;;;;;;27.60;98.60;;;;;;5012263;28;19967;-74
2022/08/17 08:51:04;;;;;;;;;;;27.50;98.50;;;;;;5015177;28;20364;-74
2022/08/17 08:53:44;;;;;;;;;;;28.30;97.10;;;;;;5012164;28;20303;-78
2022/08/17 08:56:14;;;;;;;;;;;28.40;97.60;;;;;;5011850;28;20075;-73
2022/08/17 08:58:40;;;;;;;;;;;27.70;97.50;;;;;;5009087;28;19913;-74
2022/08/17 09:01:12;;;;;;;;;;;27.40;98.40;;;;;;5012631;28;19936;-74
2022/08/17 09:03:44;;;;;;;;;;;28.40;97.60;;;;;;5010275;28;20379;-74
2022/08/17 09:06:16;;;;;;;;;;;28.80;96.90;;;;;;5013333;28;19932;-76
2022/08/17 09:09:02;;;;;;;;;;;29.50;95.60;;;;;;5009000;28;19914;-79
2022/08/17 09:11:27;;;;;;;;;;;28.30;96.30;;;;;;5009988;28;19956;-74
2022/08/17 09:14:11;;;;;;;;;;;29.10;95.90;;;;;;5009337;28;20451;-75
2022/08/17 09:16:43;;;;;;;;;;;29.20;95.80;;;;;;5013042;28;19959;-75
2022/08/17 09:19:30;;;;;;;;;;;29.10;95.70;;;;;;5013336;28;19913;-77
2022/08/17 09:22:16;;;;;;;;;;;28.80;95.80;;;;;;5012247;28;19999;-75
2022/08/17 09:24:45;;;;;;;;;;;28.10;96.30;;;;;;5011380;28;19913;-75
2022/08/17 09:27:17;;;;;;;;;;;28.20;96.40;;;;;;5019330;28;20497;-75
2022/08/17 09:29:52;;;;;;;;;;;28.70;95.80;;;;;;5007432;28;19955;-80
2022/08/17 09:32:24;;;;;;;;;;;29.50;95.50;;;;;;5009683;28;19913;-80
2022/08/17 09:34:55;;;;;;;;;;;27.70;96.80;;;;;;5008181;28;19929;-79
2022/08/17 09:37:29;;;;;;;;;;;26.30;97.10;;;;;;5019967;28;19910;-74
2022/08/17 09:39:58;;;;;;;;;;;25.10;99.40;;;;;;5010202;28;19917;-74
2022/08/17 09:42:36;;;;;;;;;;;24.80;99.30;;;;;;5011257;28;19921;-75
2022/08/17 09:45:24;;;;;;;;;;;27.00;97.80;;;;;;5012332;28;20422;-80
2022/08/17 09:47:50;;;;;;;;;;;27.20;96.60;;;;;;5006113;28;19920;-80
2022/08/17 09:50:26;;;;;;;;;;;28.20;96.10;;;;;;5007495;28;19910;-79
2022/08/17 09:52:54;;;;;;;;;;;27.60;96.20;;;;;;5013008;28;20368;-75
2022/08/17 09:55:22;;;;;;;;;;;28.00;95.90;;;;;;5013878;28;19962;-80
2022/08/17 09:57:48;;;;;;;;;;;28.60;95.50;;;;;;5010277;28;20000;-80
2022/08/17 10:00:17;;;;;;;;;;;28.20;94.80;;;;;;5012986;28;20386;-84
2022/08/17 10:02:43;;;;;;;;;;;27.30;94.80;;;;;;5013704;28;19913;-81
2022/08/17 10:05:22;;;;;;;;;;;27.60;94.50;;;;;;5011446;28;19920;-76
2022/08/17 10:08:08;;;;;;;;;;;27.80;95.10;;;;;;5011051;28;19909;-80
2022/08/17 10:10:49;;;;;;;;;;;28.40;94.30;;;;;;5006720;28;20304;-75
2022/08/17 10:13:22;;;;;;;;;;;28.40;93.80;;;;;;5012571;28;19978;-81
2022/08/17 10:15:51;;;;;;;;;;;28.70;93.20;;;;;;5010697;28;20389;-74
2022/08/17 10:18:25;;;;;;;;;;;28.70;92.20;;;;;;5009463;28;19910;-75
2022/08/17 10:26:11;;;;;;;;;;;27.70;93.90;;;;;;5011010;28;19917;-80
2022/08/17 10:26:26;;;;;;;;;;;29.20;92.30;;;;;;5003320;28;19964;-79
2022/08/17 10:28:54;;;;;;;;;;;30.20;92.50;;;;;;4997576;28;19995;-81
2022/08/17 10:31:29;;;;;;;;;;;29.40;92.80;;;;;;4996590;28;19956;-76
2022/08/17 10:34:00;;;;;;;;;;;29.90;92.10;;;;;;5006476;28;20397;-80
2022/08/17 10:36:36;;;;;;;;;;;29.90;92.30;;;;;;4995493;28;19919;-77
2022/08/17 10:39:05;;;;;;;;;;;30.10;90.90;;;;;;5000434;28;19913;-80
2022/08/17 10:41:41;;;;;;;;;;;28.10;93.50;;;;;;4997882;28;20030;-81
2022/08/17 10:44:22;;;;;;;;;;;28.50;93.40;;;;;;5003927;28;19914;-76
2022/08/17 10:47:00;;;;;;;;;;;28.50;93.20;;;;;;5008204;28;20402;-80
2022/08/17 10:49:28;;;;;;;;;;;28.30;93.90;;;;;;4997806;28;19995;-80
2022/08/17 10:51:55;;;;;;;;;;;28.20;94.70;;;;;;4988650;28;19924;-80
2022/08/17 10:54:23;;;;;;;;;;;27.90;95.40;;;;;;4997054;28;19913;-78
2022/08/17 10:56:49;;;;;;;;;;;27.50;95.70;;;;;;4991807;28;19976;-77
2022/08/17 10:59:33;;;;;;;;;;;27.00;96.40;;;;;;4983342;28;20399;-81
2022/08/17 11:01:59;;;;;;;;;;;26.60;96.70;;;;;;4988349;28;20319;-79
2022/08/17 11:04:27;;;;;;;;;;;26.40;97.40;;;;;;4995145;28;20312;-78
2022/08/17 11:07:00;;;;;;;;;;;26.60;97.40;;;;;;4994745;28;19968;-81
2022/08/17 11:09:44;;;;;;;;;;;26.40;97.40;;;;;;4997920;28;19909;-80
2022/08/17 11:12:19;;;;;;;;;;;26.20;97.60;;;;;;4989828;28;19921;-80
2022/08/17 11:14:46;;;;;;;;;;;27.20;96.90;;;;;;4999550;28;19998;-82
2022/08/17 11:17:23;;;;;;;;;;;27.30;96.70;;;;;;5004496;28;19920;-81
2022/08/17 11:19:51;;;;;;;;;;;27.20;96.70;;;;;;5008219;28;19940;-78
2022/08/17 11:22:20;;;;;;;;;;;27.30;96.40;;;;;;5003022;28;19921;-75
2022/08/17 11:24:46;;;;;;;;;;;27.70;96.70;;;;;;5006765;28;19924;-74
2022/08/17 11:27:23;;;;;;;;;;;26.60;97.30;;;;;;4996932;28;19913;-81
2022/08/17 11:29:54;;;;;;;;;;;25.90;97.90;;;;;;5003652;28;20416;-82
2022/08/17 11:32:30;;;;;;;;;;;25.00;98.60;;;;;;5008473;28;19917;-78
2022/08/17 11:35:14;;;;;;;;;;;24.10;99.60;;;;;;4988534;28;20273;-77
2022/08/17 11:37:47;;;;;;;;;;;23.80;99.90;;;;;;5008255;28;19952;-77
2022/08/17 11:40:23;;;;;;;;;;;24.10;99.90;;;;;;5003786;28;19936;-82
2022/08/17 11:43:14;;;;;;;;;;;24.70;99.00;;;;;;5007399;28;19991;-80
2022/08/17 11:45:45;;;;;;;;;;;24.80;98.70;;;;;;5004151;28;19920;-81
2022/08/17 11:53:48;;;;;;;;;;;23.90;99.90;;;;;;4999563;28;19920;-77
2022/08/17 11:56:30;;;;;;;;;;;23.60;99.90;;;;;;5003863;28;20289;-78
2022/08/17 11:58:57;;;;;;;;;;;23.70;99.90;;;;;;5007669;28;19914;-74
2022/08/17 12:01:23;;;;;;;;;;;23.90;99.90;;;;;;5011937;28;19948;-78
2022/08/17 12:03:52;;;;;;;;;;;23.30;99.90;;;;;;5014474;28;19952;-75
2022/08/17 12:06:26;;;;;;;;;;;23.30;99.90;;;;;;5012839;28;19996;-77
2022/08/17 12:09:05;;;;;;;;;;;23.20;99.90;;;;;;5010438;28;20304;-85
2022/08/17 12:11:43;;;;;;;;;;;23.90;99.90;;;;;;5006746;28;19929;-84
2022/08/17 12:14:13;;;;;;;;;;;23.90;99.90;;;;;;5010243;28;20000;-85
2022/08/17 12:16:41;;;;;;;;;;;23.80;99.90;;;;;;5009123;28;19913;-77
2022/08/17 12:19:15;;;;;;;;;;;23.50;99.90;;;;;;5010043;28;20000;-84
2022/08/17 12:21:52;;;;;;;;;;;23.70;99.90;;;;;;5007587;28;19913;-85
2022/08/17 12:24:24;;;;;;;;;;;23.40;99.90;;;;;;5013015;28;20423;-83
2022/08/17 12:26:51;;;;;;;;;;;23.50;99.90;;;;;;5013074;28;19920;-78
2022/08/17 12:29:16;;;;;;;;;;;23.50;99.90;;;;;;5015299;28;19913;-77
2022/08/17 12:31:43;;;;;;;;;;;23.50;99.90;;;;;;5013589;28;19913;-83
2022/08/17 12:34:19;;;;;;;;;;;23.40;99.90;;;;;;5015172;28;20011;-85
2022/08/17 12:36:46;;;;;;;;;;;23.20;99.90;;;;;;5016611;28;19924;-84
2022/08/17 12:39:16;;;;;;;;;;;23.20;99.90;;;;;;5013534;28;20327;-78
2022/08/17 12:41:43;;;;;;;;;;;23.30;99.90;;;;;;5011923;28;19914;-84
2022/08/17 12:44:19;;;;;;;;;;;23.30;99.90;;;;;;5012110;28;19920;-83
2022/08/17 12:46:52;;;;;;;;;;;23.00;99.90;;;;;;5012995;28;19957;-84
2022/08/17 12:49:27;;;;;;;;;;;22.90;99.90;;;;;;5014176;28;19909;-81
2022/08/17 12:52:13;;;;;;;;;;;22.90;99.90;;;;;;5015897;28;19917;-79
2022/08/17 12:54:52;;;;;;;;;;;22.80;99.90;;;;;;5012756;28;19917;-80
2022/08/17 12:57:32;;;;;;;;;;;23.00;99.90;;;;;;5011123;28;19913;-84
2022/08/17 13:00:15;;;;;;;;;;;23.40;99.90;;;;;;5011952;28;19910;-85
2022/08/17 13:02:48;;;;;;;;;;;23.90;99.30;;;;;;5013564;28;19910;-83
2022/08/17 13:05:21;;;;;;;;;;;23.60;99.90;;;;;;5009985;28;19918;-77
2022/08/17 13:07:47;;;;;;;;;;;23.90;99.90;;;;;;5010997;28;20351;-85
2022/08/17 13:10:14;;;;;;;;;;;24.00;99.00;;;;;;5012279;28;19992;-85
2022/08/17 13:12:40;;;;;;;;;;;24.40;98.40;;;;;;5015202;28;19924;-85
2022/08/17 13:15:06;;;;;;;;;;;24.60;98.70;;;;;;5011821;28;19925;-84
2022/08/17 13:17:34;;;;;;;;;;;24.40;98.90;;;;;;5009519;28;20314;-78
2022/08/17 13:20:00;;;;;;;;;;;24.10;98.50;;;;;;5012111;28;19946;-77
2022/08/17 13:22:27;;;;;;;;;;;23.90;98.90;;;;;;5012392;28;20341;-83
2022/08/17 13:24:54;;;;;;;;;;;24.30;97.70;;;;;;5012161;28;19983;-83
2022/08/17 13:27:21;;;;;;;;;;;24.40;98.10;;;;;;5009000;28;19912;-83
2022/08/17 13:29:48;;;;;;;;;;;24.20;99.50;;;;;;5014984;28;19910;-83
2022/08/17 13:32:29;;;;;;;;;;;23.70;99.90;;;;;;5014995;28;19914;-85
2022/08/17 13:34:56;;;;;;;;;;;23.90;99.90;;;;;;5007888;28;19920;-83
2022/08/17 13:37:33;;;;;;;;;;;24.40;99.20;;;;;;5014463;28;19966;-82
2022/08/17 13:40:06;;;;;;;;;;;24.40;99.90;;;;;;5011289;28;19960;-84
2022/08/17 13:42:40;;;;;;;;;;;23.80;99.90;;;;;;5010256;28;19909;-83
2022/08/17 13:45:24;;;;;;;;;;;23.90;99.90;;;;;;5012022;28;20008;-77
2022/08/17 13:48:03;;;;;;;;;;;24.40;99.90;;;;;;5011486;28;19914;-84
2022/08/17 13:50:28;;;;;;;;;;;24.40;99.90;;;;;;5007051;28;19913;-84
2022/08/17 13:52:54;;;;;;;;;;;24.40;99.90;;;;;;5008422;28;20446;-85
2022/08/17 13:55:21;;;;;;;;;;;24.50;99.90;;;;;;5008627;28;19959;-79
2022/08/17 13:57:49;;;;;;;;;;;24.50;99.90;;;;;;5010989;28;19941;-79
2022/08/17 14:00:35;;;;;;;;;;;24.40;99.80;;;;;;5001218;28;20104;-77
2022/08/17 14:03:01;;;;;;;;;;;24.40;99.60;;;;;;4997291;28;19914;-84
2022/08/17 14:05:27;;;;;;;;;;;23.70;99.90;;;;;;5009870;28;19909;-83
2022/08/17 14:07:58;;;;;;;;;;;23.70;99.90;;;;;;5001548;28;19920;-79
2022/08/17 14:10:24;;;;;;;;;;;23.60;99.90;;;;;;4999425;28;21231;-78
2022/08/17 14:12:49;;;;;;;;;;;23.90;99.90;;;;;;4995751;28;20515;-80
2022/08/17 14:15:16;;;;;;;;;;;23.70;99.90;;;;;;5002572;28;20436;-84
2022/08/17 14:17:41;;;;;;;;;;;23.60;99.90;;;;;;4992376;28;19914;-83
2022/08/17 14:20:08;;;;;;;;;;;23.80;99.90;;;;;;5003149;28;20060;-85
2022/08/17 14:22:35;;;;;;;;;;;23.50;99.90;;;;;;5010957;28;19913;-84
2022/08/17 14:25:01;;;;;;;;;;;23.10;99.90;;;;;;5005830;28;19914;-78
2022/08/17 14:27:27;;;;;;;;;;;23.20;99.90;;;;;;5010698;28;19916;-78
2022/08/17 14:29:53;;;;;;;;;;;23.70;99.90;;;;;;5011613;28;19914;-77
2022/08/17 14:32:20;;;;;;;;;;;24.20;99.90;;;;;;5010453;28;20340;-79
2022/08/17 14:34:48;;;;;;;;;;;24.10;99.90;;;;;;5007648;28;19909;-85
2022/08/17 14:37:14;;;;;;;;;;;24.60;98.50;;;;;;5006934;28;19913;-84
2022/08/17 14:39:40;;;;;;;;;;;24.70;97.50;;;;;;5008752;28;19917;-79
2022/08/17 14:42:05;;;;;;;;;;;25.60;96.80;;;;;;5006760;28;19921;-85
2022/08/17 14:44:31;;;;;;;;;;;26.00;96.70;;;;;;5013185;28;19909;-84
2022/08/17 14:46:56;;;;;;;;;;;26.70;97.60;;;;;;5017201;28;19919;-79
2022/08/17 14:49:22;;;;;;;;;;;26.10;98.20;;;;;;5012823;28;19909;-78
2022/08/17 14:51:48;;;;;;;;;;;26.20;97.70;;;;;;5011238;28;19909;-77
2022/08/17 14:54:14;;;;;;;;;;;26.40;97.70;;;;;;5011299;28;19916;-85
2022/08/17 14:56:39;;;;;;;;;;;26.00;98.00;;;;;;5011464;28;19959;-84